Terminal Aerodrome Forecast
Issued by NWS

Home | Current Version | Previous Version | Graphics & Text | Print | Product List | Glossary On
Versions: 1 2 3 4 5 6 7 8 9 10 11 12 13 14 15
000
FTUS43 KICT 070527
TAFCNU
TAF
KCNU 070527Z 0706/0806 01004KT P6SM OVC120
     FM071300 06006KT P6SM OVC080
     FM071800 06009KT P6SM -SN VCSH SCT035 OVC050
     FM072200 01010KT 5SM -SN BR OVC025
     FM080000 36007KT P6SM OVC035
     FM080300 34007KT P6SM SCT080=

USA.gov is the U.S. government's official web portal to all federal, state and local government web resources and services.